createdAt,value
2022-11-16T00:01:52.691Z,4.75
2022-11-16T00:04:24.761Z,4.80
2022-11-16T00:06:56.867Z,5.05
2022-11-16T00:09:33.022Z,5.03
2022-11-16T00:12:08.866Z,4.63
2022-11-16T00:14:40.934Z,5.05
2022-11-16T00:17:12.872Z,4.80
2022-11-16T00:19:44.850Z,4.90
2022-11-16T00:22:16.799Z,4.53
2022-11-16T00:24:48.823Z,5.35
2022-11-16T00:27:20.810Z,5.38
2022-11-16T00:29:52.734Z,5.20
2022-11-16T00:32:24.684Z,4.63
2022-11-16T00:34:56.643Z,4.80
2022-11-16T00:37:28.600Z,4.70
2022-11-16T00:40:00.567Z,5.53
2022-11-16T00:42:32.531Z,4.45
2022-11-16T00:45:04.893Z,4.82
2022-11-16T00:47:37.161Z,5.68
2022-11-16T00:50:09.469Z,4.88
2022-11-16T00:52:41.442Z,4.85
2022-11-16T00:55:13.373Z,5.00
2022-11-16T00:57:45.353Z,4.97
2022-11-16T01:00:18.818Z,5.10
2022-11-16T01:02:52.606Z,5.70
2022-11-16T01:05:24.968Z,4.80
2022-11-16T01:07:57.353Z,5.03
2022-11-16T01:10:29.965Z,5.20
2022-11-16T01:13:01.906Z,5.10
2022-11-16T01:15:34.178Z,5.15
2022-11-16T01:18:06.217Z,4.97
2022-11-16T01:20:40.992Z,5.55
2022-11-16T01:23:13.032Z,4.47
2022-11-16T01:25:44.972Z,5.53
2022-11-16T01:28:16.888Z,5.75
2022-11-16T01:30:49.483Z,4.65
2022-11-16T01:33:21.903Z,5.25
2022-11-16T01:35:53.906Z,5.38
2022-11-16T01:38:29.614Z,4.75
2022-11-16T01:41:02.022Z,5.05
2022-11-16T01:43:53.758Z,4.75
2022-11-16T01:46:28.416Z,4.93
2022-11-16T01:49:08.209Z,5.55
2022-11-16T01:51:44.745Z,5.40
2022-11-16T01:54:17.014Z,4.28
2022-11-16T01:56:51.891Z,5.07
2022-11-16T01:59:24.003Z,4.80
2022-11-16T02:01:56.975Z,4.78
2022-11-16T02:04:29.248Z,5.03
2022-11-16T02:07:12.321Z,6.05
2022-11-16T02:10:25.437Z,5.38
2022-11-16T02:14:08.214Z,5.10
2022-11-16T02:17:16.801Z,4.57
2022-11-16T02:20:48.901Z,5.07
2022-11-16T02:23:33.555Z,4.80
2022-11-16T02:26:45.413Z,4.55
2022-11-16T02:29:41.794Z,4.80
2022-11-16T02:32:45.253Z,4.38
2022-11-16T02:35:25.591Z,4.55
2022-11-16T02:40:35.640Z,4.75
2022-11-16T02:43:12.301Z,5.10
2022-11-16T02:45:49.187Z,4.85
2022-11-16T02:48:31.539Z,4.25
2022-11-16T02:51:06.679Z,4.70
2022-11-16T02:54:04.177Z,5.80
2022-11-16T02:56:57.531Z,4.45
2022-11-16T02:59:47.740Z,5.28
2022-11-16T03:02:34.600Z,5.28
2022-11-16T03:05:15.815Z,5.50
2022-11-16T03:08:08.464Z,5.20
2022-11-16T03:11:00.802Z,5.85
2022-11-16T03:13:34.659Z,5.82
2022-11-16T03:16:24.468Z,6.05
2022-11-16T03:19:00.122Z,5.78
2022-11-16T03:21:48.051Z,6.53
2022-11-16T03:24:21.162Z,6.70
2022-11-16T03:27:04.716Z,6.35
2022-11-16T03:30:05.988Z,6.22
2022-11-16T03:32:54.373Z,6.63
2022-11-16T03:35:59.559Z,6.13
2022-11-16T03:38:34.761Z,6.88
2022-11-16T03:41:09.870Z,7.72
2022-11-16T03:43:44.359Z,7.82
2022-11-16T03:46:17.673Z,8.75
2022-11-16T03:48:56.759Z,7.30
2022-11-16T03:51:28.972Z,8.27
2022-11-16T03:54:01.080Z,8.02
2022-11-16T03:56:33.053Z,8.25
2022-11-16T03:59:04.987Z,8.63
2022-11-16T04:01:41.797Z,7.93
2022-11-16T04:04:39.286Z,9.23
2022-11-16T04:07:29.670Z,8.57
2022-11-16T04:13:11.191Z,9.50
2022-11-16T04:16:01.796Z,9.95
2022-11-16T04:18:52.296Z,9.88
2022-11-16T04:21:48.683Z,9.88
2022-11-16T04:24:30.348Z,10.15
2022-11-16T04:27:24.657Z,11.05
2022-11-16T04:29:58.486Z,11.23
2022-11-16T04:32:49.163Z,11.43
2022-11-16T04:35:46.840Z,11.25
2022-11-16T04:38:18.936Z,11.95
2022-11-16T04:40:50.910Z,12.00
2022-11-16T04:43:22.989Z,12.18
2022-11-16T04:46:13.337Z,11.85
2022-11-16T04:51:17.178Z,12.95
2022-11-16T04:53:49.147Z,12.80
2022-11-16T04:56:21.149Z,12.98
2022-11-16T04:58:53.171Z,12.52
2022-11-16T05:01:45.127Z,13.25
2022-11-16T05:04:17.175Z,12.50
2022-11-16T05:06:49.343Z,12.93
2022-11-16T05:09:21.567Z,13.05
2022-11-16T05:11:53.655Z,12.60
2022-11-16T05:14:25.762Z,13.30
2022-11-16T05:16:57.713Z,12.82
2022-11-16T05:19:48.173Z,12.63
2022-11-16T05:24:52.597Z,12.85
2022-11-16T05:27:26.994Z,13.82
2022-11-16T05:29:59.541Z,13.13
2022-11-16T05:32:31.460Z,13.02
2022-11-16T05:35:03.562Z,14.80
2022-11-16T05:37:35.615Z,14.32
2022-11-16T05:40:08.315Z,14.93
2022-11-16T05:42:40.361Z,15.90
2022-11-16T05:45:15.955Z,17.65
2022-11-16T05:47:50.424Z,15.65
2022-11-16T05:50:22.472Z,17.60
2022-11-16T05:52:54.491Z,15.77
2022-11-16T05:55:26.525Z,16.85
2022-11-16T05:57:58.461Z,17.88
2022-11-16T06:00:30.442Z,17.65
2022-11-16T06:03:02.447Z,17.20
2022-11-16T06:05:40.436Z,18.88
2022-11-16T06:08:12.867Z,19.50
2022-11-16T06:10:44.887Z,18.92
2022-11-16T06:13:16.929Z,18.33
2022-11-16T06:15:54.302Z,18.52
2022-11-16T06:18:27.211Z,19.40
2022-11-16T06:20:59.144Z,19.83
2022-11-16T06:23:31.108Z,18.90
2022-11-16T06:26:04.805Z,19.25
2022-11-16T06:28:37.392Z,18.67
2022-11-16T06:31:10.012Z,18.75
2022-11-16T06:33:42.242Z,21.48
2022-11-16T06:36:14.222Z,19.20
2022-11-16T06:38:46.203Z,20.60
2022-11-16T06:41:18.277Z,19.50
2022-11-16T06:43:50.230Z,19.67
2022-11-16T06:46:24.622Z,19.45
2022-11-16T06:48:57.017Z,20.00
2022-11-16T06:51:29.062Z,21.05
2022-11-16T06:54:01.163Z,20.02
2022-11-16T06:56:35.222Z,18.63
2022-11-16T06:59:07.182Z,20.27
2022-11-16T07:01:39.240Z,19.27
2022-11-16T07:04:12.144Z,22.02
2022-11-16T07:06:44.161Z,19.45
2022-11-16T07:09:16.265Z,21.17
2022-11-16T07:11:48.199Z,20.45
2022-11-16T07:14:20.176Z,19.65
2022-11-16T07:16:57.916Z,21.42
2022-11-16T07:19:31.371Z,20.98
2022-11-16T07:22:04.377Z,18.70
2022-11-16T07:24:36.345Z,20.60
2022-11-16T07:27:08.983Z,20.23
2022-11-16T07:29:40.907Z,21.85
2022-11-16T07:32:12.864Z,22.13
2022-11-16T07:34:44.871Z,19.27
2022-11-16T07:37:16.851Z,19.35
2022-11-16T07:39:52.025Z,19.95
2022-11-16T07:42:23.996Z,20.27
2022-11-16T07:44:55.970Z,21.38
2022-11-16T07:47:27.932Z,20.40
2022-11-16T07:49:59.877Z,21.00
2022-11-16T07:52:31.980Z,20.05
2022-11-16T07:55:05.742Z,20.77
2022-11-16T07:57:37.734Z,20.77
2022-11-16T08:00:10.300Z,21.48
2022-11-16T08:02:42.375Z,21.20
2022-11-16T08:05:14.317Z,22.40
2022-11-16T08:07:46.353Z,22.52
2022-11-16T08:10:18.586Z,21.65
2022-11-16T08:12:50.640Z,22.20
2022-11-16T08:15:23.685Z,23.10
2022-11-16T08:17:58.564Z,23.25
2022-11-16T08:20:31.410Z,22.15
2022-11-16T08:23:03.369Z,22.75
2022-11-16T08:25:35.691Z,22.77
2022-11-16T08:28:07.677Z,24.30
2022-11-16T08:30:40.178Z,24.45
2022-11-16T08:33:12.118Z,22.23
2022-11-16T08:35:44.038Z,22.38
2022-11-16T08:38:16.066Z,22.48
2022-11-16T08:40:50.880Z,22.30
2022-11-16T08:43:22.828Z,23.83
2022-11-16T08:45:55.998Z,23.67
2022-11-16T08:48:28.106Z,23.67
2022-11-16T08:51:17.540Z,23.77
2022-11-16T08:53:57.261Z,22.95
2022-11-16T08:56:30.331Z,24.10
2022-11-16T08:59:02.323Z,23.15
2022-11-16T09:01:34.389Z,24.80
2022-11-16T09:04:06.689Z,24.42
2022-11-16T09:06:39.001Z,22.80
2022-11-16T09:09:11.169Z,26.83
2022-11-16T09:11:43.229Z,27.65
2022-11-16T09:14:15.168Z,22.20
2022-11-16T09:16:47.169Z,22.63
2022-11-16T09:19:20.581Z,23.85
2022-11-16T09:21:52.606Z,24.60
2022-11-16T09:24:24.560Z,25.27
2022-11-16T09:27:00.923Z,24.25
2022-11-16T09:29:33.154Z,23.08
2022-11-16T09:32:05.410Z,24.50
2022-11-16T09:34:37.438Z,25.55
2022-11-16T09:37:09.683Z,24.88
2022-11-16T09:39:42.090Z,22.73
2022-11-16T09:42:25.555Z,26.10
2022-11-16T09:45:21.197Z,24.27
2022-11-16T09:48:02.358Z,23.98
2022-11-16T09:51:01.873Z,24.33
2022-11-16T09:53:46.605Z,23.97
2022-11-16T09:56:26.426Z,23.95
2022-11-16T09:59:17.934Z,23.33
2022-11-16T10:02:02.245Z,24.02
2022-11-16T10:05:04.805Z,23.17
2022-11-16T10:07:50.571Z,22.70
2022-11-16T10:10:39.911Z,24.33
2022-11-16T10:13:20.653Z,23.13
2022-11-16T10:16:15.649Z,23.05
2022-11-16T10:19:26.041Z,23.63
2022-11-16T10:27:49.444Z,23.73
2022-11-16T10:30:22.886Z,23.38
2022-11-16T10:33:19.383Z,24.80
2022-11-16T10:35:57.025Z,25.25
2022-11-16T10:38:31.252Z,24.10
2022-11-16T10:41:29.743Z,24.92
2022-11-16T10:44:02.618Z,25.48
2022-11-16T10:46:44.714Z,23.35
2022-11-16T10:49:36.412Z,25.02
2022-11-16T10:52:08.474Z,25.52
2022-11-16T10:54:44.287Z,25.85
2022-11-16T10:57:17.811Z,22.98
2022-11-16T10:59:59.164Z,24.95
2022-11-16T11:02:37.453Z,25.30
2022-11-16T11:05:20.868Z,23.45
2022-11-16T11:08:05.092Z,23.75
2022-11-16T11:10:41.837Z,24.42
2022-11-16T11:13:13.756Z,23.65
2022-11-16T11:15:47.639Z,25.08
2022-11-16T11:18:31.816Z,25.08
2022-11-16T11:21:21.012Z,25.75
2022-11-16T11:24:06.142Z,24.60
2022-11-16T11:26:58.442Z,24.60
2022-11-16T11:29:34.949Z,23.02
2022-11-16T11:32:24.198Z,24.90
2022-11-16T11:34:57.543Z,24.42
2022-11-16T11:37:39.775Z,24.05
2022-11-16T11:40:18.918Z,22.98
2022-11-16T11:43:01.162Z,23.30
2022-11-16T11:45:39.963Z,22.55
2022-11-16T11:48:38.005Z,22.35
2022-11-16T11:51:37.015Z,23.80
2022-11-16T11:54:28.550Z,23.33
2022-11-16T11:57:02.435Z,23.75
2022-11-16T11:59:35.372Z,22.17
2022-11-16T12:02:42.596Z,23.23
2022-11-16T12:05:26.936Z,23.65
2022-11-16T12:08:23.930Z,22.35
2022-11-16T12:11:23.908Z,20.08
2022-11-16T12:14:18.365Z,21.92
2022-11-16T12:17:38.870Z,21.02
2022-11-16T12:23:36.798Z,20.67
2022-11-16T12:26:57.195Z,22.25
2022-11-16T12:30:06.909Z,22.27
2022-11-16T12:33:12.109Z,19.58
2022-11-16T12:36:09.617Z,22.77
2022-11-16T12:39:08.247Z,19.73
2022-11-16T12:42:02.476Z,21.52
2022-11-16T12:44:57.076Z,20.50
2022-11-16T12:48:02.798Z,21.40
2022-11-16T12:51:31.740Z,21.90
2022-11-16T12:55:04.297Z,20.17
2022-11-16T12:58:09.745Z,18.70
2022-11-16T13:01:04.326Z,19.23
2022-11-16T13:03:48.028Z,17.83
2022-11-16T13:06:44.754Z,16.85
2022-11-16T13:09:22.073Z,16.10
2022-11-16T13:12:02.009Z,15.40
2022-11-16T13:14:40.740Z,16.90
2022-11-16T13:17:35.585Z,16.77
2022-11-16T13:20:24.913Z,15.52
2022-11-16T13:23:22.347Z,16.58
2022-11-16T13:26:30.987Z,16.23
2022-11-16T13:29:31.419Z,16.83
2022-11-16T13:34:41.683Z,16.80
2022-11-16T13:37:38.442Z,16.77
2022-11-16T13:40:23.714Z,15.95
2022-11-16T13:43:19.364Z,15.43
2022-11-16T13:45:57.504Z,16.58
2022-11-16T13:48:36.460Z,15.82
2022-11-16T13:51:21.074Z,14.75
2022-11-16T13:56:51.584Z,14.68
2022-11-16T13:59:30.910Z,17.45
2022-11-16T14:02:42.713Z,16.52
2022-11-16T14:05:40.449Z,17.45
2022-11-16T14:08:24.571Z,16.58
2022-11-16T14:10:56.447Z,14.80
2022-11-16T14:13:45.794Z,15.68
2022-11-16T14:16:17.874Z,15.88
2022-11-16T14:18:51.905Z,15.02
2022-11-16T14:21:47.672Z,14.25
2022-11-16T14:24:37.238Z,13.68
2022-11-16T14:27:36.217Z,14.95
2022-11-16T14:30:25.268Z,13.90
2022-11-16T14:32:58.138Z,14.80
2022-11-16T14:35:39.638Z,13.10
2022-11-16T14:38:34.585Z,14.30
2022-11-16T14:41:18.280Z,12.48
2022-11-16T14:43:54.295Z,12.27
2022-11-16T14:46:33.434Z,12.23
2022-11-16T14:49:13.240Z,12.30
2022-11-16T14:51:54.424Z,13.05
2022-11-16T14:54:42.859Z,12.65
2022-11-16T14:57:21.062Z,11.85
2022-11-16T15:00:17.985Z,12.35
2022-11-16T15:03:00.924Z,11.70
2022-11-16T15:05:36.791Z,11.82
2022-11-16T15:08:20.985Z,11.90
2022-11-16T15:10:53.159Z,12.63
2022-11-16T15:13:25.845Z,12.00
2022-11-16T15:16:19.735Z,12.38
2022-11-16T15:19:02.189Z,11.55
2022-11-16T15:21:34.271Z,12.90
2022-11-16T15:24:29.202Z,12.32
2022-11-16T15:27:11.672Z,11.85
2022-11-16T15:29:43.769Z,11.48
2022-11-16T15:32:19.079Z,12.40
2022-11-16T15:34:54.487Z,11.05
2022-11-16T15:37:30.684Z,12.40
2022-11-16T15:40:03.469Z,10.60
2022-11-16T15:42:37.331Z,10.77
2022-11-16T15:45:24.843Z,10.55
2022-11-16T15:48:00.665Z,10.75
2022-11-16T15:50:32.893Z,11.02
2022-11-16T15:53:04.915Z,10.25
2022-11-16T15:55:40.433Z,10.88
2022-11-16T15:58:27.380Z,11.93
2022-11-16T16:01:00.295Z,12.52
2022-11-16T16:03:34.908Z,11.60
2022-11-16T16:06:12.936Z,10.98
2022-11-16T16:08:45.405Z,11.82
2022-11-16T16:11:26.483Z,11.35
2022-11-16T16:14:04.568Z,10.82
2022-11-16T16:16:38.773Z,11.45
2022-11-16T16:19:44.800Z,10.68
2022-11-16T16:22:36.352Z,11.70
2022-11-16T16:25:31.906Z,11.38
2022-11-16T16:28:04.337Z,11.45
2022-11-16T16:30:36.364Z,11.85
2022-11-16T16:33:19.124Z,12.60
2022-11-16T16:35:51.219Z,12.18
2022-11-16T16:38:23.277Z,11.57
2022-11-16T16:41:04.435Z,12.00
2022-11-16T16:43:36.848Z,13.18
2022-11-16T16:46:13.218Z,11.18
2022-11-16T16:48:45.221Z,10.98
2022-11-16T16:51:17.265Z,11.50
2022-11-16T16:53:49.308Z,12.32
2022-11-16T16:56:21.500Z,11.88
2022-11-16T16:58:54.244Z,11.75
2022-11-16T17:01:26.765Z,11.60
2022-11-16T17:03:59.022Z,10.05
2022-11-16T17:06:31.352Z,10.15
2022-11-16T17:09:03.828Z,9.38
2022-11-16T17:11:35.816Z,8.93
2022-11-16T17:14:08.189Z,9.38
2022-11-16T17:16:40.421Z,8.35
2022-11-16T17:19:14.007Z,9.05
2022-11-16T17:21:46.037Z,9.48
2022-11-16T17:24:18.022Z,9.48
2022-11-16T17:26:50.677Z,8.80
2022-11-16T17:29:22.677Z,9.07
2022-11-16T17:31:54.888Z,10.35
2022-11-16T17:34:26.907Z,8.40
2022-11-16T17:36:58.875Z,8.95
2022-11-16T17:39:30.853Z,8.85
2022-11-16T17:42:03.199Z,8.07
2022-11-16T17:44:35.156Z,8.48
2022-11-16T17:47:07.543Z,8.68
2022-11-16T17:49:39.540Z,8.18
2022-11-16T17:52:11.471Z,8.77
2022-11-16T17:54:43.470Z,8.68
2022-11-16T17:57:15.462Z,8.30
2022-11-16T17:59:47.892Z,8.10
2022-11-16T18:02:19.830Z,7.38
2022-11-16T18:04:52.006Z,7.97
2022-11-16T18:07:24.117Z,7.50
2022-11-16T18:09:56.130Z,7.97
2022-11-16T18:12:28.134Z,8.10
2022-11-16T18:15:26.848Z,7.47
2022-11-16T18:17:56.893Z,7.57
2022-11-16T18:20:29.713Z,8.10
2022-11-16T18:23:01.657Z,8.63
2022-11-16T18:25:37.024Z,7.82
2022-11-16T18:28:08.995Z,8.20
2022-11-16T18:30:41.223Z,7.53
2022-11-16T18:33:13.214Z,7.95
2022-11-16T18:35:45.295Z,8.32
2022-11-16T18:38:17.407Z,8.05
2022-11-16T18:41:11.904Z,7.85
2022-11-16T18:43:51.184Z,8.27
2022-11-16T18:46:27.000Z,6.47
2022-11-16T18:48:59.445Z,7.38
2022-11-16T18:51:32.019Z,6.97
2022-11-16T18:54:04.294Z,6.65
2022-11-16T18:56:36.740Z,7.45
2022-11-16T18:59:08.707Z,8.32
2022-11-16T19:01:40.767Z,8.07
2022-11-16T19:04:12.771Z,7.68
2022-11-16T19:06:44.815Z,7.47
2022-11-16T19:09:16.759Z,7.32
2022-11-16T19:11:50.776Z,8.43
2022-11-16T19:14:22.885Z,7.30
2022-11-16T19:16:57.243Z,7.53
2022-11-16T19:19:30.069Z,7.57
2022-11-16T19:22:02.085Z,7.05
2022-11-16T19:24:34.031Z,6.80
2022-11-16T19:27:06.056Z,6.50
2022-11-16T19:29:38.002Z,5.90
2022-11-16T19:32:10.071Z,5.13
2022-11-16T19:34:42.102Z,5.05
2022-11-16T19:37:15.175Z,5.13
2022-11-16T19:39:47.186Z,5.13
2022-11-16T19:42:19.238Z,5.30
2022-11-16T19:44:51.204Z,5.85
2022-11-16T19:47:26.198Z,5.55
2022-11-16T19:49:58.141Z,4.95
2022-11-16T19:52:30.233Z,4.78
2022-11-16T19:55:02.215Z,5.40
2022-11-16T19:57:34.204Z,4.78
2022-11-16T20:00:07.034Z,5.47
2022-11-16T20:02:39.173Z,4.85
2022-11-16T20:05:11.139Z,5.25
2022-11-16T20:07:44.698Z,4.70
2022-11-16T20:10:17.281Z,4.78
2022-11-16T20:12:49.819Z,5.60
2022-11-16T20:15:24.001Z,4.68
2022-11-16T20:17:57.230Z,5.00
2022-11-16T20:20:29.307Z,4.68
2022-11-16T20:23:01.275Z,5.22
2022-11-16T20:25:33.288Z,4.60
2022-11-16T20:28:05.562Z,5.20
2022-11-16T20:30:37.545Z,5.32
2022-11-16T20:33:09.921Z,4.65
2022-11-16T20:35:42.271Z,5.50
2022-11-16T20:38:14.297Z,4.97
2022-11-16T20:40:46.230Z,4.35
2022-11-16T20:43:18.216Z,4.43
2022-11-16T20:45:54.127Z,4.47
2022-11-16T20:48:26.083Z,4.63
2022-11-16T20:51:01.633Z,4.80
2022-11-16T20:53:34.760Z,5.57
2022-11-16T20:56:07.947Z,5.35
2022-11-16T20:58:41.132Z,4.78
2022-11-16T21:01:19.496Z,5.13
2022-11-16T21:03:51.530Z,5.82
2022-11-16T21:06:25.332Z,5.22
2022-11-16T21:08:58.027Z,5.22
2022-11-16T21:11:52.525Z,5.00
2022-11-16T21:14:24.962Z,5.25
2022-11-16T21:16:56.969Z,5.50
2022-11-16T21:19:29.243Z,5.70
2022-11-16T21:22:01.688Z,6.47
2022-11-16T21:24:34.877Z,5.40
2022-11-16T21:27:09.809Z,5.38
2022-11-16T21:29:42.432Z,5.03
2022-11-16T21:32:14.749Z,5.18
2022-11-16T21:34:47.094Z,6.60
2022-11-16T21:37:19.289Z,6.00
2022-11-16T21:39:51.434Z,5.10
2022-11-16T21:42:24.251Z,5.03
2022-11-16T21:44:56.262Z,5.22
2022-11-16T21:47:31.036Z,5.18
2022-11-16T21:52:55.436Z,5.30
2022-11-16T21:55:27.897Z,5.00
2022-11-16T21:58:00.583Z,5.35
2022-11-16T22:00:32.605Z,5.10
2022-11-16T22:03:04.748Z,5.47
2022-11-16T22:06:11.726Z,6.05
2022-11-16T22:08:44.940Z,5.30
2022-11-16T22:11:18.067Z,5.47
2022-11-16T22:13:50.523Z,5.18
2022-11-16T22:16:23.592Z,6.28
2022-11-16T22:18:55.771Z,4.82
2022-11-16T22:21:28.568Z,5.60
2022-11-16T22:24:01.906Z,5.45
2022-11-16T22:26:38.201Z,5.03
2022-11-16T22:29:13.481Z,5.30
2022-11-16T22:31:47.395Z,5.68
2022-11-16T22:34:19.360Z,4.80
2022-11-16T22:36:51.591Z,5.20
2022-11-16T22:39:23.748Z,5.07
2022-11-16T22:41:55.746Z,5.53
2022-11-16T22:44:27.836Z,5.20
2022-11-16T22:46:59.984Z,4.05
2022-11-16T22:49:31.985Z,4.80
2022-11-16T22:52:04.190Z,5.68
2022-11-16T22:54:38.888Z,4.70
2022-11-16T22:57:10.995Z,4.88
2022-11-16T22:59:42.908Z,4.70
2022-11-16T23:02:14.909Z,4.75
2022-11-16T23:04:46.837Z,5.10
2022-11-16T23:07:18.849Z,5.40
2022-11-16T23:09:50.801Z,4.97
2022-11-16T23:12:41.662Z,4.93
2022-11-16T23:15:32.661Z,4.57
2022-11-16T23:18:04.988Z,4.93
2022-11-16T23:20:55.678Z,5.40
2022-11-16T23:23:45.972Z,4.53
2022-11-16T23:26:42.271Z,5.00
2022-11-16T23:29:14.240Z,4.85
2022-11-16T23:31:46.196Z,5.43
2022-11-16T23:34:20.064Z,5.30
2022-11-16T23:36:51.991Z,5.85
2022-11-16T23:39:23.972Z,5.78
2022-11-16T23:42:14.273Z,5.55
2022-11-16T23:44:46.559Z,5.68
2022-11-16T23:47:18.506Z,5.13
2022-11-16T23:49:50.517Z,5.07
2022-11-16T23:52:22.463Z,5.57
2022-11-16T23:54:54.453Z,5.45
2022-11-16T23:57:26.403Z,5.43
2022-11-16T23:59:58.471Z,5.65
